Time;durP1;ratioP1;P1;durP2;ratioP2;P2;SDS_P1;SDS_P2;PMS_P1;PMS_P2;Temp;Humidity;BMP_temperature;BMP_pressure;BME280_temperature;BME280_humidity;BME280_pressure;Samples;Min_cycle;Max_cycle;Signal;HPM_P1;HPM_P2
2022/02/17 00:00:54;;;;;;;23.38;4.97;;;13.00;79.60;;;;;;4961239;28;20513;-77
2022/02/17 00:03:20;;;;;;;25.95;6.43;;;12.90;79.40;;;;;;4960675;28;20040;-77
2022/02/17 00:05:46;;;;;;;29.92;6.75;;;12.90;79.30;;;;;;4958577;28;20566;-78
2022/02/17 00:08:12;;;;;;;22.15;5.43;;;12.80;79.50;;;;;;4954205;28;20043;-78
2022/02/17 00:10:38;;;;;;;24.50;6.43;;;12.80;78.80;;;;;;4958926;28;20069;-76
2022/02/17 00:13:04;;;;;;;26.58;6.70;;;12.70;78.90;;;;;;4976832;28;20038;-77
2022/02/17 00:15:31;;;;;;;21.25;6.22;;;12.60;78.70;;;;;;4976753;28;20088;-76
2022/02/17 00:17:58;;;;;;;24.10;6.18;;;12.60;78.00;;;;;;4947500;28;20390;-75
2022/02/17 00:20:25;;;;;;;28.55;5.97;;;12.60;77.80;;;;;;4968679;28;20472;-76
2022/02/17 00:22:51;;;;;;;26.45;6.68;;;12.60;77.60;;;;;;4957974;28;20035;-76
2022/02/17 00:25:17;;;;;;;21.38;6.22;;;12.50;77.50;;;;;;4956987;28;20203;-77
2022/02/17 00:27:44;;;;;;;22.73;6.13;;;12.50;77.30;;;;;;4959013;28;20040;-76
2022/02/17 00:30:10;;;;;;;30.33;6.97;;;12.50;76.80;;;;;;4964884;28;20427;-76
2022/02/17 00:32:37;;;;;;;36.67;7.75;;;12.50;76.70;;;;;;4957451;28;20035;-76
2022/02/17 00:35:05;;;;;;;27.98;6.63;;;12.50;76.40;;;;;;4953873;28;20187;-76
2022/02/17 00:37:31;;;;;;;30.08;6.30;;;12.40;76.40;;;;;;4942217;28;20558;-77
2022/02/17 00:39:57;;;;;;;29.42;7.53;;;12.40;75.70;;;;;;4955634;28;20171;-76
2022/02/17 00:42:23;;;;;;;29.75;7.38;;;12.40;76.00;;;;;;4963134;28;20387;-76
2022/02/17 00:44:52;;;;;;;30.38;6.13;;;12.30;76.20;;;;;;4963707;28;20058;-77
2022/02/17 00:47:18;;;;;;;32.90;7.35;;;12.30;76.20;;;;;;4965190;28;20031;-76
2022/02/17 00:49:44;;;;;;;31.23;6.78;;;12.30;76.20;;;;;;4958827;28;20031;-76
2022/02/17 00:52:11;;;;;;;32.53;7.93;;;12.30;76.10;;;;;;4960893;28;20031;-76
2022/02/17 00:54:37;;;;;;;31.48;6.78;;;12.20;76.30;;;;;;4960075;28;20058;-77
2022/02/17 00:57:03;;;;;;;31.88;7.88;;;12.20;76.20;;;;;;4961739;28;20177;-76
2022/02/17 00:59:29;;;;;;;37.35;7.63;;;12.10;76.20;;;;;;4957033;28;20038;-77
2022/02/17 01:01:55;;;;;;;36.15;7.53;;;12.20;75.90;;;;;;4969780;28;20046;-77
2022/02/17 01:04:22;;;;;;;29.60;7.90;;;12.10;76.30;;;;;;4972941;28;20037;-77
2022/02/17 01:06:48;;;;;;;33.85;9.27;;;12.00;76.40;;;;;;4957279;28;20042;-77
2022/02/17 01:09:14;;;;;;;32.28;7.60;;;12.00;76.40;;;;;;4979686;28;20458;-76
2022/02/17 01:11:41;;;;;;;38.80;8.27;;;12.10;76.20;;;;;;4979076;28;20062;-76
2022/02/17 01:14:08;;;;;;;34.25;7.75;;;11.90;76.40;;;;;;4983087;28;20035;-76
2022/02/17 01:16:34;;;;;;;34.90;7.88;;;12.00;75.40;;;;;;4975676;28;20046;-76
2022/02/17 01:19:00;;;;;;;29.95;7.45;;;12.00;75.50;;;;;;4976340;28;20536;-75
2022/02/17 01:21:26;;;;;;;32.70;7.22;;;11.90;75.20;;;;;;4970458;28;20030;-76
2022/02/17 01:23:52;;;;;;;37.63;8.15;;;11.80;75.10;;;;;;4990904;28;20382;-76
2022/02/17 01:26:18;;;;;;;35.60;8.23;;;11.80;75.00;;;;;;4975354;28;20117;-77
2022/02/17 01:28:44;;;;;;;38.97;7.78;;;11.80;74.80;;;;;;4980041;28;20536;-77
2022/02/17 01:31:10;;;;;;;40.00;9.65;;;11.80;74.70;;;;;;4976056;28;20046;-76
2022/02/17 01:33:36;;;;;;;40.42;9.35;;;11.80;74.90;;;;;;4961926;28;20022;-76
2022/02/17 01:36:07;;;;;;;30.45;7.88;;;11.80;74.50;;;;;;4978406;28;20022;-75
2022/02/17 01:38:36;;;;;;;30.17;8.68;;;11.80;73.70;;;;;;4972344;28;20125;-76
2022/02/17 01:41:04;;;;;;;30.80;7.78;;;11.80;74.00;;;;;;4972040;28;20053;-76
2022/02/17 01:43:31;;;;;;;36.10;8.23;;;11.70;73.60;;;;;;4952925;28;20085;-75
2022/02/17 01:45:59;;;;;;;37.88;7.68;;;11.80;73.00;;;;;;4973979;28;20466;-75
2022/02/17 01:48:25;;;;;;;39.50;8.52;;;11.80;72.90;;;;;;4969449;28;20497;-75
2022/02/17 01:50:51;;;;;;;32.80;8.45;;;11.80;73.00;;;;;;4973897;28;20036;-76
2022/02/17 01:53:17;;;;;;;30.48;8.48;;;11.70;73.30;;;;;;4981996;28;20053;-76
2022/02/17 01:55:46;;;;;;;35.25;9.25;;;11.60;73.50;;;;;;4970812;28;20374;-76
2022/02/17 01:58:12;;;;;;;37.90;8.50;;;11.60;73.70;;;;;;4972474;28;20131;-76
2022/02/17 02:00:38;;;;;;;30.98;8.10;;;11.60;73.50;;;;;;4981572;28;20038;-76
2022/02/17 02:03:04;;;;;;;35.03;8.65;;;11.50;73.50;;;;;;4966410;28;20069;-76
2022/02/17 02:05:29;;;;;;;35.78;7.90;;;11.40;73.80;;;;;;4972037;28;20034;-76
2022/02/17 02:07:55;;;;;;;36.53;8.70;;;11.40;73.80;;;;;;4984618;28;20120;-75
2022/02/17 02:10:21;;;;;;;30.25;7.70;;;11.40;73.70;;;;;;4982641;28;20371;-76
2022/02/17 02:12:47;;;;;;;39.25;8.23;;;11.30;73.30;;;;;;4976939;28;20058;-76
2022/02/17 02:15:14;;;;;;;39.63;8.38;;;11.30;73.20;;;;;;4971394;28;20069;-76
2022/02/17 02:17:40;;;;;;;34.78;7.80;;;11.30;73.40;;;;;;4972988;28;20097;-76
2022/02/17 02:20:07;;;;;;;36.83;8.70;;;11.30;73.90;;;;;;4963807;28;20436;-76
2022/02/17 02:22:33;;;;;;;35.05;8.70;;;11.20;73.70;;;;;;4977362;28;20035;-76
2022/02/17 02:25:00;;;;;;;41.03;9.55;;;11.20;73.50;;;;;;4979954;28;20158;-76
2022/02/17 02:27:28;;;;;;;35.20;8.63;;;11.10;73.70;;;;;;4977575;28;20338;-75
2022/02/17 02:29:54;;;;;;;34.20;8.48;;;11.10;73.40;;;;;;4984730;28;20298;-76
2022/02/17 02:32:20;;;;;;;36.50;8.32;;;11.10;73.30;;;;;;4964476;28;20075;-76
2022/02/17 02:34:46;;;;;;;40.03;8.38;;;11.10;73.40;;;;;;4963929;28;20030;-76
2022/02/17 02:37:12;;;;;;;42.28;7.95;;;11.10;73.40;;;;;;4970333;28;20045;-77
2022/02/17 02:39:39;;;;;;;36.40;8.00;;;11.00;73.40;;;;;;4967491;28;20050;-76
2022/02/17 02:42:06;;;;;;;37.13;8.60;;;11.00;73.40;;;;;;4949868;28;20620;-76
2022/02/17 02:44:32;;;;;;;33.65;8.35;;;11.00;72.70;;;;;;4973731;28;20475;-76
2022/02/17 02:46:59;;;;;;;38.97;8.85;;;11.00;72.60;;;;;;4947825;28;20034;-76
2022/02/17 02:49:24;;;;;;;34.17;8.27;;;11.10;72.10;;;;;;4970017;28;20109;-76
2022/02/17 02:51:50;;;;;;;39.60;9.15;;;11.10;71.80;;;;;;4977979;28;20060;-75
2022/02/17 02:54:16;;;;;;;37.85;8.70;;;11.10;72.10;;;;;;4979440;28;20077;-74
2022/02/17 02:56:43;;;;;;;36.63;9.00;;;11.00;72.30;;;;;;4969061;28;20035;-75
2022/02/17 02:59:09;;;;;;;41.58;8.20;;;11.00;72.70;;;;;;4969198;28;20048;-76
2022/02/17 03:01:35;;;;;;;36.65;8.88;;;11.00;73.00;;;;;;4976576;28;20034;-76
2022/02/17 03:04:00;;;;;;;37.97;8.18;;;11.00;73.50;;;;;;4983890;28;20060;-76
2022/02/17 03:06:29;;;;;;;38.95;9.02;;;11.00;74.10;;;;;;4984738;28;20479;-76
2022/02/17 03:08:56;;;;;;;40.72;9.57;;;10.90;74.70;;;;;;4983367;28;20081;-76
2022/02/17 03:11:22;;;;;;;43.20;8.73;;;10.90;75.10;;;;;;4982186;28;20365;-76
2022/02/17 03:13:48;;;;;;;43.40;10.00;;;10.90;75.60;;;;;;4982199;28;20093;-76
2022/02/17 03:16:14;;;;;;;42.47;9.13;;;11.00;75.80;;;;;;4979520;28;20490;-76
2022/02/17 03:18:40;;;;;;;44.03;9.98;;;11.00;76.00;;;;;;4972426;28;20047;-76
2022/02/17 03:21:06;;;;;;;42.38;10.15;;;11.00;75.60;;;;;;4972091;28;20082;-77
2022/02/17 03:23:32;;;;;;;46.92;9.48;;;11.00;75.70;;;;;;4972785;28;20109;-76
2022/02/17 03:26:00;;;;;;;45.30;9.68;;;10.90;75.50;;;;;;4969218;28;20038;-76
2022/02/17 03:28:26;;;;;;;47.60;10.68;;;10.90;75.60;;;;;;4967461;28;20408;-76
2022/02/17 03:30:53;;;;;;;57.42;11.70;;;10.90;75.50;;;;;;4961566;28;20080;-76
2022/02/17 03:33:21;;;;;;;49.83;9.32;;;10.90;75.60;;;;;;4960862;28;20023;-76
2022/02/17 03:35:47;;;;;;;50.80;11.73;;;10.80;75.80;;;;;;4961681;28;20808;-76
2022/02/17 03:38:13;;;;;;;38.72;10.18;;;10.80;75.80;;;;;;4961544;28;20046;-76
2022/02/17 03:40:39;;;;;;;54.67;11.93;;;10.90;75.70;;;;;;4962994;28;20093;-76
2022/02/17 03:43:05;;;;;;;40.90;9.27;;;10.90;75.50;;;;;;4961052;28;20023;-77
2022/02/17 03:45:31;;;;;;;45.90;11.38;;;10.90;75.30;;;;;;4968577;28;20068;-76
2022/02/17 03:47:57;;;;;;;47.63;11.20;;;10.90;75.20;;;;;;4966626;28;20132;-76
2022/02/17 03:50:22;;;;;;;47.83;10.23;;;10.80;75.20;;;;;;4955459;28;20735;-76
2022/02/17 03:52:48;;;;;;;46.88;10.25;;;10.80;75.10;;;;;;4960115;28;20536;-77
2022/02/17 03:55:16;;;;;;;42.95;10.65;;;10.80;75.20;;;;;;4966349;28;20537;-76
2022/02/17 03:57:44;;;;;;;39.65;9.60;;;10.70;74.80;;;;;;4962345;28;20367;-76
2022/02/17 04:00:11;;;;;;;46.88;10.95;;;10.70;75.00;;;;;;4974484;28;20135;-76
2022/02/17 04:02:37;;;;;;;38.55;9.73;;;10.70;74.60;;;;;;4974909;28;20027;-77
2022/02/17 04:05:03;;;;;;;45.75;11.43;;;10.70;74.50;;;;;;4966869;28;20045;-76
2022/02/17 04:07:29;;;;;;;48.70;11.27;;;10.60;74.50;;;;;;4974420;28;20034;-77
2022/02/17 04:09:56;;;;;;;46.75;9.57;;;10.70;74.20;;;;;;4976099;28;20045;-77
2022/02/17 04:12:21;;;;;;;45.45;10.35;;;10.60;74.10;;;;;;4974664;28;20037;-76
2022/02/17 04:14:47;;;;;;;51.63;11.10;;;10.60;74.20;;;;;;4954300;28;20425;-76
2022/02/17 04:17:13;;;;;;;51.00;10.70;;;10.60;74.10;;;;;;4972081;28;20461;-77
2022/02/17 04:19:38;;;;;;;44.50;10.93;;;10.50;74.20;;;;;;4960012;28;20040;-77
2022/02/17 04:22:04;;;;;;;46.55;10.48;;;10.50;74.10;;;;;;4977481;28;20041;-76
2022/02/17 04:24:30;;;;;;;45.08;11.05;;;10.50;74.20;;;;;;4979143;28;20084;-76
2022/02/17 04:26:56;;;;;;;47.05;11.30;;;10.60;73.60;;;;;;4974474;28;20164;-76
2022/02/17 04:29:22;;;;;;;54.67;10.60;;;10.60;73.80;;;;;;4969982;28;20506;-77
2022/02/17 04:31:47;;;;;;;39.30;11.30;;;10.60;73.40;;;;;;4951211;28;20042;-76
2022/02/17 04:34:13;;;;;;;48.70;10.13;;;10.60;73.60;;;;;;4956401;28;20039;-76
2022/02/17 04:36:39;;;;;;;49.63;11.55;;;10.60;73.40;;;;;;4976677;28;20113;-76
2022/02/17 04:39:04;;;;;;;46.75;11.45;;;10.60;73.30;;;;;;4965082;28;20058;-76
2022/02/17 04:44:14;;;;;;;49.13;10.05;;;10.60;73.60;;;;;;4972241;28;20037;-76
2022/02/17 04:46:40;;;;;;;49.53;12.75;;;10.60;73.70;;;;;;4962181;28;20459;-76
2022/02/17 04:49:06;;;;;;;52.33;12.25;;;10.50;74.10;;;;;;4963197;28;20069;-77
2022/02/17 04:51:31;;;;;;;45.05;10.30;;;10.50;74.20;;;;;;4964841;28;20035;-77
2022/02/17 04:53:57;;;;;;;51.80;10.25;;;10.50;74.00;;;;;;4961895;28;20122;-76
2022/02/17 04:56:23;;;;;;;58.45;12.23;;;10.50;74.10;;;;;;4967011;28;20542;-77
2022/02/17 04:58:49;;;;;;;50.30;10.45;;;10.50;74.00;;;;;;4965308;28;20046;-76
2022/02/17 05:01:14;;;;;;;52.40;11.45;;;10.50;74.00;;;;;;4956763;28;20070;-76
2022/02/17 05:03:40;;;;;;;52.55;13.05;;;10.50;73.90;;;;;;4971062;28;20034;-76
2022/02/17 05:06:05;;;;;;;47.75;11.30;;;10.50;74.10;;;;;;4962401;28;20118;-77
2022/02/17 05:08:31;;;;;;;52.47;11.25;;;10.40;74.20;;;;;;4945305;28;20039;-76
2022/02/17 05:10:57;;;;;;;54.60;11.75;;;10.40;74.10;;;;;;4959658;28;20035;-76
2022/02/17 05:13:22;;;;;;;42.90;10.73;;;10.40;74.00;;;;;;4960058;28;20548;-76
2022/02/17 05:15:48;;;;;;;49.97;11.57;;;10.50;73.70;;;;;;4941680;28;20538;-75
2022/02/17 05:18:14;;;;;;;45.10;11.52;;;10.50;73.50;;;;;;4963110;28;20452;-76
2022/02/17 05:20:40;;;;;;;48.22;10.45;;;10.40;73.90;;;;;;4970864;28;20043;-77
2022/02/17 05:23:06;;;;;;;48.28;10.90;;;10.40;73.70;;;;;;4958156;28;20461;-76
2022/02/17 05:25:32;;;;;;;44.50;11.02;;;10.40;73.50;;;;;;4942889;28;20085;-76
2022/02/17 05:27:58;;;;;;;52.33;11.05;;;10.30;73.50;;;;;;4957920;28;20034;-76
2022/02/17 05:30:24;;;;;;;42.80;11.10;;;10.40;73.70;;;;;;4956607;28;20045;-76
2022/02/17 05:32:49;;;;;;;44.10;10.32;;;10.40;73.50;;;;;;4956097;28;20019;-76
2022/02/17 05:35:15;;;;;;;50.03;12.63;;;10.30;74.00;;;;;;4951355;28;20033;-77
2022/02/17 05:37:41;;;;;;;57.55;14.32;;;10.30;74.00;;;;;;4953387;28;20309;-77
2022/02/17 05:40:10;;;;;;;50.65;13.18;;;10.20;74.30;;;;;;4953516;28;20379;-77
2022/02/17 05:42:36;;;;;;;54.35;13.98;;;10.30;74.40;;;;;;4959562;28;20029;-77
2022/02/17 05:45:03;;;;;;;54.30;13.27;;;10.30;74.40;;;;;;4952827;28;20092;-77
2022/02/17 05:47:29;;;;;;;51.88;13.95;;;10.30;74.70;;;;;;4962209;28;20031;-77
2022/02/17 05:49:55;;;;;;;55.83;15.23;;;10.20;74.90;;;;;;4964861;28;20081;-76
2022/02/17 05:52:21;;;;;;;61.72;14.98;;;10.20;75.20;;;;;;4959034;28;20572;-77
2022/02/17 05:54:46;;;;;;;55.20;14.88;;;10.20;75.40;;;;;;4956521;28;20046;-76
2022/02/17 05:57:12;;;;;;;56.92;15.38;;;10.20;75.50;;;;;;4962654;28;20554;-76
2022/02/17 05:59:43;;;;;;;56.38;13.95;;;10.20;75.50;;;;;;4968998;28;20050;-76
2022/02/17 06:02:09;;;;;;;52.60;12.68;;;10.20;75.40;;;;;;4964816;28;20042;-76
2022/02/17 06:04:34;;;;;;;56.45;11.52;;;10.30;75.50;;;;;;4937514;28;20082;-76
2022/02/17 06:07:00;;;;;;;61.47;11.85;;;10.30;75.40;;;;;;4956474;28;20039;-76
2022/02/17 06:09:25;;;;;;;57.40;12.63;;;10.30;75.60;;;;;;4955507;28;20807;-76
2022/02/17 06:11:51;;;;;;;52.65;13.50;;;10.30;75.40;;;;;;4955140;28;20042;-76
2022/02/17 06:14:17;;;;;;;60.45;13.07;;;10.30;75.40;;;;;;4963036;28;20026;-75
2022/02/17 06:16:42;;;;;;;44.63;12.68;;;10.30;75.10;;;;;;4958309;28;20067;-75
2022/02/17 06:19:08;;;;;;;49.55;11.52;;;10.30;75.30;;;;;;4956275;28;20043;-75
2022/02/17 06:21:34;;;;;;;43.60;10.75;;;10.30;75.00;;;;;;4968484;28;20563;-76
2022/02/17 06:23:59;;;;;;;58.72;12.35;;;10.30;75.10;;;;;;4955754;28;20634;-76
2022/02/17 06:26:25;;;;;;;49.63;11.65;;;10.30;75.10;;;;;;4962618;28;20041;-77
2022/02/17 06:28:51;;;;;;;48.85;12.07;;;10.20;75.10;;;;;;4977477;28;20050;-76
2022/02/17 06:31:18;;;;;;;47.92;11.18;;;10.20;74.60;;;;;;4968186;28;20030;-76
2022/02/17 06:33:44;;;;;;;53.22;11.93;;;10.30;74.60;;;;;;4960262;28;20066;-77
2022/02/17 06:36:15;;;;;;;46.67;10.25;;;10.20;74.80;;;;;;4963930;28;20061;-76
2022/02/17 06:38:41;;;;;;;55.20;11.40;;;10.20;74.70;;;;;;4972559;28;20101;-73
2022/02/17 06:41:07;;;;;;;45.67;11.75;;;10.20;74.30;;;;;;4969454;28;20133;-76
2022/02/17 06:43:35;;;;;;;48.83;11.32;;;10.20;74.30;;;;;;4969805;28;20085;-76
2022/02/17 06:46:00;;;;;;;47.97;11.00;;;10.30;74.10;;;;;;4960761;28;20038;-73
2022/02/17 06:48:26;;;;;;;49.85;11.30;;;10.30;73.70;;;;;;4959761;28;20085;-74
2022/02/17 06:50:52;;;;;;;45.20;10.60;;;10.20;73.80;;;;;;4961064;28;20035;-74
2022/02/17 06:53:17;;;;;;;52.92;12.07;;;10.30;73.80;;;;;;4966717;28;20118;-74
2022/02/17 06:55:45;;;;;;;48.67;11.85;;;10.20;73.60;;;;;;4975870;28;20038;-76
2022/02/17 06:58:11;;;;;;;47.00;11.13;;;10.20;73.80;;;;;;4971679;28;20039;-73
2022/02/17 07:00:36;;;;;;;48.75;10.55;;;10.20;73.70;;;;;;4973659;28;20124;-76
2022/02/17 07:03:06;;;;;;;49.15;12.48;;;10.20;73.70;;;;;;4975181;28;20991;-75
2022/02/17 07:05:32;;;;;;;50.67;10.95;;;10.20;73.70;;;;;;4969838;28;20034;-73
2022/02/17 07:07:58;;;;;;;45.15;10.65;;;10.20;73.50;;;;;;4954507;28;20120;-74
2022/02/17 07:13:10;;;;;;;42.53;9.90;;;10.20;73.10;;;;;;4966495;28;20577;-73
2022/02/17 07:15:36;;;;;;;45.97;10.57;;;10.20;72.90;;;;;;4970042;28;20154;-78
2022/02/17 07:18:04;;;;;;;48.72;11.10;;;10.30;72.90;;;;;;4953833;28;20356;-74
2022/02/17 07:20:30;;;;;;;48.15;9.55;;;10.30;73.10;;;;;;4967820;28;20031;-76
2022/02/17 07:22:57;;;;;;;43.22;9.82;;;10.30;72.90;;;;;;4972365;28;20632;-74
2022/02/17 07:25:23;;;;;;;43.55;10.50;;;10.30;72.80;;;;;;4966142;28;20046;-74
2022/02/17 07:27:49;;;;;;;45.25;10.57;;;10.30;72.40;;;;;;4972029;28;20165;-75
2022/02/17 07:30:14;;;;;;;43.17;10.40;;;10.30;72.10;;;;;;4961745;28;20348;-76
2022/02/17 07:32:41;;;;;;;41.00;9.43;;;10.40;72.20;;;;;;4968883;28;20100;-73
2022/02/17 07:35:08;;;;;;;44.88;11.00;;;10.40;72.60;;;;;;4961144;28;20053;-75
2022/02/17 07:37:34;;;;;;;53.63;11.30;;;10.40;72.30;;;;;;4964110;28;20070;-74
2022/02/17 07:39:59;;;;;;;42.90;8.52;;;10.30;72.30;;;;;;4963236;28;20046;-76
2022/02/17 07:42:25;;;;;;;44.28;9.02;;;10.40;72.00;;;;;;4953824;28;20031;-76
2022/02/17 07:44:56;;;;;;;42.00;9.98;;;10.30;72.60;;;;;;4973029;28;20027;-78
2022/02/17 07:47:25;;;;;;;46.72;10.07;;;10.30;73.10;;;;;;4949151;28;20039;-73
2022/02/17 07:49:54;;;;;;;44.63;10.32;;;10.30;73.50;;;;;;4960230;28;20104;-78
2022/02/17 07:52:21;;;;;;;49.75;10.48;;;10.30;73.40;;;;;;4964354;28;20121;-76
2022/02/17 07:54:46;;;;;;;44.72;11.32;;;10.30;73.80;;;;;;4950271;28;20081;-74
2022/02/17 07:57:12;;;;;;;42.72;9.95;;;10.30;73.40;;;;;;4960488;28;20129;-77
2022/02/17 07:59:38;;;;;;;44.08;9.20;;;10.40;73.60;;;;;;4976079;28;20054;-76
2022/02/17 08:02:04;;;;;;;47.00;10.10;;;10.30;73.30;;;;;;4975067;28;20102;-80
2022/02/17 08:04:30;;;;;;;38.85;9.23;;;10.30;73.20;;;;;;4965194;28;20490;-76
2022/02/17 08:06:56;;;;;;;44.20;9.73;;;10.30;72.90;;;;;;4971851;28;20030;-74
2022/02/17 08:09:22;;;;;;;47.40;10.88;;;10.30;73.50;;;;;;4971757;28;20089;-76
2022/02/17 08:11:48;;;;;;;48.03;11.65;;;10.30;74.00;;;;;;4967912;28;20390;-76
2022/02/17 08:14:14;;;;;;;49.72;11.68;;;10.40;74.70;;;;;;4964878;28;20034;-75
2022/02/17 08:16:40;;;;;;;54.45;10.48;;;10.40;75.20;;;;;;4969463;28;20042;-77
2022/02/17 08:19:07;;;;;;;53.83;12.40;;;10.40;76.00;;;;;;4960818;28;20050;-77
2022/02/17 08:21:33;;;;;;;45.60;10.20;;;10.60;75.90;;;;;;4964681;28;20546;-77
2022/02/17 08:23:59;;;;;;;41.55;10.70;;;10.70;75.60;;;;;;4943894;28;20159;-75
2022/02/17 08:26:25;;;;;;;47.97;10.50;;;10.60;76.30;;;;;;4957173;28;20152;-78
2022/02/17 08:28:57;;;;;;;35.47;7.35;;;10.30;78.20;;;;;;4965040;28;20143;-76
2022/02/17 08:31:24;;;;;;;25.35;5.85;;;9.80;78.40;;;;;;4959487;28;20337;-74
2022/02/17 08:33:50;;;;;;;22.27;4.95;;;9.40;80.40;;;;;;4974642;28;20656;-80
2022/02/17 08:36:16;;;;;;;20.70;5.30;;;9.10;80.50;;;;;;4974887;28;20086;-77
2022/02/17 08:38:42;;;;;;;26.27;5.95;;;9.10;81.00;;;;;;4976334;28;20043;-77
2022/02/17 08:41:09;;;;;;;38.13;6.78;;;9.10;81.40;;;;;;4967883;28;20043;-75
2022/02/17 08:43:35;;;;;;;30.27;8.52;;;9.20;81.60;;;;;;4976002;28;20033;-76
2022/02/17 08:46:01;;;;;;;26.35;6.97;;;9.20;81.40;;;;;;4970371;28;20141;-78
2022/02/17 08:48:27;;;;;;;26.30;6.32;;;9.30;81.00;;;;;;4965635;28;20065;-76
2022/02/17 08:50:53;;;;;;;30.48;7.00;;;9.30;80.70;;;;;;4967345;28;20406;-74
2022/02/17 08:53:19;;;;;;;31.67;6.68;;;9.40;80.80;;;;;;4960652;28;20031;-77
2022/02/17 08:55:45;;;;;;;34.63;7.30;;;9.40;80.70;;;;;;4964112;28;20545;-74
2022/02/17 08:58:11;;;;;;;29.30;5.38;;;9.40;80.60;;;;;;4965321;28;20462;-75
2022/02/17 09:00:37;;;;;;;27.75;6.40;;;9.40;80.60;;;;;;4974001;28;20023;-76
2022/02/17 09:03:06;;;;;;;32.17;7.30;;;9.60;80.80;;;;;;4967136;28;20118;-75
2022/02/17 09:05:33;;;;;;;31.13;7.18;;;9.70;80.60;;;;;;4947149;28;20061;-74
2022/02/17 09:07:59;;;;;;;34.63;8.23;;;9.90;80.10;;;;;;4954237;28;20146;-73
2022/02/17 09:10:25;;;;;;;42.78;10.45;;;10.10;80.10;;;;;;4962485;28;20043;-79
2022/02/17 09:12:51;;;;;;;40.35;8.30;;;10.30;79.30;;;;;;4961562;28;20577;-75
2022/02/17 09:15:20;;;;;;;40.88;9.85;;;10.40;78.90;;;;;;4965966;28;20108;-82
2022/02/17 09:17:46;;;;;;;37.28;9.98;;;10.50;79.00;;;;;;4970724;28;20039;-77
2022/02/17 09:20:12;;;;;;;36.88;9.25;;;10.50;78.50;;;;;;4968897;28;20030;-76
2022/02/17 09:22:39;;;;;;;39.97;9.13;;;10.60;78.00;;;;;;4967198;28;20030;-82
2022/02/17 09:25:06;;;;;;;36.63;9.77;;;10.80;77.10;;;;;;4975639;28;20054;-76
2022/02/17 09:27:32;;;;;;;39.42;9.57;;;10.80;76.50;;;;;;4981958;28;20085;-76
2022/02/17 09:29:57;;;;;;;35.75;8.63;;;10.80;76.50;;;;;;4969945;28;20038;-73
2022/02/17 09:32:24;;;;;;;38.42;10.45;;;10.90;75.90;;;;;;4960651;28;20050;-75
2022/02/17 09:34:50;;;;;;;38.08;8.93;;;11.10;76.00;;;;;;4973674;28;20061;-78
2022/02/17 09:37:16;;;;;;;32.53;7.93;;;11.10;74.70;;;;;;4969200;28;20537;-74
2022/02/17 09:39:43;;;;;;;31.60;8.40;;;11.10;74.40;;;;;;4963082;28;20466;-79
2022/02/17 09:42:09;;;;;;;34.65;8.68;;;11.10;73.70;;;;;;4965756;28;20088;-74
2022/02/17 09:44:35;;;;;;;33.08;8.27;;;11.00;73.60;;;;;;4956082;28;20427;-74
2022/02/17 09:47:02;;;;;;;35.45;8.27;;;11.20;73.10;;;;;;4956770;28;20041;-75
2022/02/17 09:49:30;;;;;;;33.58;8.35;;;11.20;72.80;;;;;;4973520;28;20585;-75
2022/02/17 09:51:56;;;;;;;28.75;6.78;;;11.30;72.60;;;;;;4976464;28;20031;-80
2022/02/17 09:54:23;;;;;;;30.17;6.85;;;11.50;72.50;;;;;;4966395;28;20038;-77
2022/02/17 09:56:50;;;;;;;29.73;7.45;;;11.70;71.50;;;;;;4966329;28;20038;-77
2022/02/17 09:59:16;;;;;;;34.05;8.70;;;11.60;72.10;;;;;;4971234;28;20033;-73
2022/02/17 10:02:00;;;;;;;30.98;7.25;;;11.60;71.00;;;;;;4963452;28;20046;-80
2022/02/17 10:04:27;;;;;;;39.17;8.95;;;11.40;71.30;;;;;;4970349;28;20089;-76
2022/02/17 10:06:59;;;;;;;28.55;7.60;;;11.40;71.20;;;;;;4986237;28;20037;-77
2022/02/17 10:09:36;;;;;;;26.20;7.53;;;11.60;70.00;;;;;;4973470;28;20599;-73
2022/02/17 10:12:02;;;;;;;32.10;7.25;;;11.40;70.20;;;;;;4956743;28;20105;-75
2022/02/17 10:14:28;;;;;;;36.30;9.10;;;11.60;70.80;;;;;;4977604;28;20109;-75
2022/02/17 10:17:05;;;;;;;32.22;8.40;;;11.60;70.60;;;;;;4979125;28;20446;-78
2022/02/17 10:19:40;;;;;;;28.25;7.13;;;11.80;70.70;;;;;;4980131;28;20042;-74
2022/02/17 10:22:12;;;;;;;30.33;7.25;;;11.80;70.40;;;;;;4982265;28;20038;-73
2022/02/17 10:24:49;;;;;;;35.17;7.35;;;12.00;70.30;;;;;;4982681;28;20481;-76
2022/02/17 10:27:17;;;;;;;32.30;7.88;;;11.80;69.80;;;;;;4983065;28;20607;-73
2022/02/17 10:30:01;;;;;;;32.42;7.50;;;12.00;69.80;;;;;;4975178;28;20023;-74
2022/02/17 10:32:28;;;;;;;34.40;8.13;;;12.10;68.20;;;;;;4962881;28;20125;-74
2022/02/17 10:35:12;;;;;;;32.15;6.43;;;11.70;69.20;;;;;;4974839;28;20500;-77
2022/02/17 10:37:55;;;;;;;26.38;6.07;;;11.80;68.90;;;;;;4969241;28;20356;-77
2022/02/17 10:40:30;;;;;;;29.65;6.65;;;11.80;68.20;;;;;;4975582;28;20056;-74
2022/02/17 10:43:07;;;;;;;28.55;6.78;;;12.20;68.70;;;;;;4977259;28;20034;-80
2022/02/17 10:45:33;;;;;;;27.55;5.88;;;12.10;68.10;;;;;;4978670;28;20393;-76
2022/02/17 10:48:22;;;;;;;21.05;5.07;;;12.10;66.20;;;;;;4970053;28;20524;-76
2022/02/17 10:51:04;;;;;;;22.50;4.53;;;12.10;63.90;;;;;;4970653;28;20043;-74
2022/02/17 10:53:35;;;;;;;23.77;5.72;;;11.80;63.40;;;;;;4956264;28;20450;-76
2022/02/17 10:56:04;;;;;;;20.58;4.72;;;11.70;64.10;;;;;;4953698;28;20771;-76
2022/02/17 10:58:43;;;;;;;21.23;4.65;;;11.90;65.30;;;;;;4951736;28;20031;-74
2022/02/17 11:01:10;;;;;;;19.48;4.53;;;12.10;64.20;;;;;;4958028;28;20031;-77
2022/02/17 11:03:38;;;;;;;18.73;4.45;;;12.40;62.90;;;;;;4968784;28;20065;-76
2022/02/17 11:06:05;;;;;;;18.17;4.50;;;12.20;61.20;;;;;;4943330;28;20041;-76
2022/02/17 11:08:32;;;;;;;14.95;4.15;;;12.10;62.10;;;;;;4964560;28;20038;-74
2022/02/17 11:10:59;;;;;;;18.05;3.92;;;12.10;61.50;;;;;;4977480;28;20042;-74
2022/02/17 11:13:26;;;;;;;18.75;4.38;;;12.30;61.40;;;;;;4961042;28;20032;-74
2022/02/17 11:15:56;;;;;;;19.13;3.90;;;12.00;60.30;;;;;;4974421;28;20542;-76
2022/02/17 11:18:22;;;;;;;20.20;3.72;;;12.10;61.00;;;;;;4970345;28;20402;-74
2022/02/17 11:20:50;;;;;;;14.60;3.22;;;12.10;61.60;;;;;;4945795;28;20169;-75
2022/02/17 11:23:19;;;;;;;18.77;3.42;;;12.30;60.50;;;;;;4972087;28;20502;-81
2022/02/17 11:25:46;;;;;;;15.43;3.83;;;12.10;59.30;;;;;;4974691;28;20049;-76
2022/02/17 11:28:16;;;;;;;12.00;3.58;;;12.10;59.20;;;;;;4979052;28;20046;-75
2022/02/17 11:30:44;;;;;;;14.40;4.05;;;11.90;59.00;;;;;;4971430;28;20160;-80
2022/02/17 11:33:23;;;;;;;16.45;3.53;;;11.80;59.50;;;;;;4969378;28;20023;-78
2022/02/17 11:35:50;;;;;;;13.70;3.55;;;12.00;60.30;;;;;;4946381;28;20400;-74
2022/02/17 11:38:32;;;;;;;12.20;3.13;;;12.30;60.20;;;;;;4949478;28;20078;-75
2022/02/17 11:41:08;;;;;;;14.88;2.78;;;12.40;58.60;;;;;;4976175;28;20066;-74
2022/02/17 11:43:36;;;;;;;16.88;3.45;;;12.40;59.10;;;;;;4948120;28;20031;-71
2022/02/17 11:46:02;;;;;;;16.92;3.70;;;12.30;59.20;;;;;;4969949;28;20508;-74
2022/02/17 11:48:40;;;;;;;17.98;4.15;;;12.40;58.50;;;;;;4962230;28;20111;-75
2022/02/17 11:51:23;;;;;;;11.40;3.47;;;12.60;56.80;;;;;;4948456;28;20034;-76
2022/02/17 11:54:15;;;;;;;13.63;3.28;;;12.70;57.10;;;;;;4967013;28;20039;-72
2022/02/17 11:56:50;;;;;;;13.93;3.08;;;12.80;56.00;;;;;;4950226;28;20089;-78
2022/02/17 11:59:36;;;;;;;17.48;4.28;;;12.70;54.80;;;;;;4949422;28;20339;-76
2022/02/17 12:02:08;;;;;;;16.08;3.13;;;12.90;55.80;;;;;;4969721;28;20275;-74
2022/02/17 12:04:35;;;;;;;15.45;3.30;;;12.70;53.80;;;;;;4955985;28;20034;-74
2022/02/17 12:07:03;;;;;;;15.32;3.63;;;12.40;54.80;;;;;;4950234;28;20059;-73
2022/02/17 12:09:29;;;;;;;13.40;3.33;;;12.20;56.60;;;;;;4953868;28;20030;-75
2022/02/17 12:11:56;;;;;;;18.75;3.53;;;12.10;57.60;;;;;;4952301;28;20398;-76
2022/02/17 12:14:22;;;;;;;15.93;3.88;;;11.90;57.80;;;;;;4953162;28;20117;-77
2022/02/17 12:16:52;;;;;;;14.57;3.50;;;11.90;59.30;;;;;;4956097;28;20138;-75
2022/02/17 12:19:18;;;;;;;19.42;4.10;;;11.80;59.80;;;;;;4950334;28;20193;-76
2022/02/17 12:21:46;;;;;;;18.52;4.35;;;11.80;60.90;;;;;;4957281;28;20734;-76
2022/02/17 12:24:14;;;;;;;19.73;4.50;;;12.00;60.60;;;;;;4956168;28;20041;-75
2022/02/17 12:26:50;;;;;;;22.45;3.92;;;12.30;60.10;;;;;;4950992;28;20248;-73
2022/02/17 12:29:29;;;;;;;14.75;4.00;;;12.30;59.00;;;;;;4950815;28;20057;-76
2022/02/17 12:31:56;;;;;;;13.35;3.80;;;12.30;58.60;;;;;;4949721;28;20069;-73
2022/02/17 12:34:23;;;;;;;15.13;3.97;;;12.20;55.90;;;;;;4938137;28;20329;-74
2022/02/17 12:36:48;;;;;;;24.13;5.55;;;12.20;56.50;;;;;;4955897;28;20376;-74
2022/02/17 12:39:15;;;;;;;20.23;3.90;;;12.20;58.50;;;;;;4969425;28;20038;-75